createdAt,value
2023-05-20T00:01:18.204Z,52.02
2023-05-20T00:05:43.172Z,52.01
2023-05-20T00:08:13.747Z,52.17
2023-05-20T00:10:44.174Z,52.05
2023-05-20T00:13:14.573Z,52.07
2023-05-20T00:15:44.941Z,52.33
2023-05-20T00:18:15.270Z,51.80
2023-05-20T00:20:45.468Z,52.03
2023-05-20T00:23:15.832Z,51.85
2023-05-20T00:25:46.140Z,51.77
2023-05-20T00:28:16.552Z,52.01
2023-05-20T00:30:46.725Z,52.01
2023-05-20T00:33:17.124Z,51.97
2023-05-20T00:35:47.566Z,51.84
2023-05-20T00:38:17.853Z,51.75
2023-05-20T00:40:48.544Z,51.78
2023-05-20T00:43:18.879Z,51.88
2023-05-20T00:45:50.297Z,52.33
2023-05-20T00:48:24.041Z,52.36
2023-05-20T00:50:54.712Z,52.30
2023-05-20T00:53:25.991Z,52.54
2023-05-20T00:55:56.336Z,52.12
2023-05-20T00:58:26.702Z,52.25
2023-05-20T01:00:57.925Z,52.01
2023-05-20T01:03:29.955Z,51.93
2023-05-20T01:06:00.404Z,51.91
2023-05-20T01:08:31.423Z,52.27
2023-05-20T01:11:08.043Z,52.19
2023-05-20T01:13:53.945Z,52.16
2023-05-20T01:16:27.060Z,52.11
2023-05-20T01:19:00.450Z,51.79
2023-05-20T01:21:34.792Z,51.91
2023-05-20T01:24:09.737Z,52.30
2023-05-20T01:26:40.823Z,52.01
2023-05-20T01:29:11.371Z,52.43
2023-05-20T01:31:42.161Z,52.09
2023-05-20T01:34:15.691Z,51.84
2023-05-20T01:36:47.083Z,52.24
2023-05-20T01:39:17.843Z,52.18
2023-05-20T01:41:49.119Z,53.29
2023-05-20T01:44:19.669Z,52.09
2023-05-20T01:46:53.425Z,52.42
2023-05-20T01:49:24.117Z,52.24
2023-05-20T01:51:54.590Z,52.73
2023-05-20T01:54:25.857Z,52.36
2023-05-20T01:56:56.847Z,52.60
2023-05-20T01:59:27.437Z,52.29
2023-05-20T02:01:57.881Z,52.49
2023-05-20T02:04:28.489Z,51.99
2023-05-20T02:07:01.553Z,52.40
2023-05-20T02:09:33.021Z,52.17
2023-05-20T02:12:03.513Z,52.61
2023-05-20T02:14:34.199Z,52.24
2023-05-20T02:17:04.625Z,52.33
2023-05-20T02:19:35.156Z,52.28
2023-05-20T02:22:05.780Z,52.36
2023-05-20T02:24:36.342Z,51.91
2023-05-20T02:27:07.296Z,52.30
2023-05-20T02:29:37.975Z,52.20
2023-05-20T02:32:08.698Z,52.41
2023-05-20T02:34:39.170Z,52.71
2023-05-20T02:37:09.611Z,52.68
2023-05-20T02:39:40.535Z,52.75
2023-05-20T02:42:10.977Z,52.88
2023-05-20T02:44:41.391Z,52.84
2023-05-20T02:47:11.700Z,52.94
2023-05-20T02:49:42.012Z,52.75
2023-05-20T02:52:13.332Z,52.68
2023-05-20T02:54:46.354Z,52.81
2023-05-20T02:57:17.368Z,52.58
2023-05-20T02:59:48.494Z,52.86
2023-05-20T03:02:18.532Z,53.00
2023-05-20T03:04:49.814Z,52.94
2023-05-20T03:07:23.116Z,52.61
2023-05-20T03:09:53.532Z,52.61
2023-05-20T03:12:24.299Z,52.57
2023-05-20T03:14:57.755Z,52.46
2023-05-20T03:17:28.434Z,52.50
2023-05-20T03:20:00.219Z,52.45
2023-05-20T03:22:30.751Z,52.25
2023-05-20T03:25:02.821Z,51.99
2023-05-20T03:27:33.613Z,52.51
2023-05-20T03:30:04.064Z,52.45
2023-05-20T03:32:35.270Z,52.30
2023-05-20T03:35:05.698Z,52.10
2023-05-20T03:37:36.154Z,52.05
2023-05-20T03:40:09.785Z,51.93
2023-05-20T03:42:44.186Z,52.18
2023-05-20T03:45:15.378Z,52.03
2023-05-20T03:47:55.475Z,51.90
2023-05-20T03:50:26.301Z,52.06
2023-05-20T03:52:56.703Z,51.92
2023-05-20T03:55:28.431Z,51.89
2023-05-20T03:57:59.338Z,51.72
2023-05-20T04:00:31.872Z,51.91
2023-05-20T04:03:03.002Z,51.87
2023-05-20T04:05:34.041Z,52.00
2023-05-20T04:08:07.550Z,52.01
2023-05-20T04:10:38.089Z,51.79
2023-05-20T04:13:08.889Z,51.60
2023-05-20T04:15:40.729Z,51.97
2023-05-20T04:18:11.589Z,52.05
2023-05-20T04:20:43.787Z,51.80
2023-05-20T04:23:16.655Z,51.78
2023-05-20T04:25:47.052Z,51.67
2023-05-20T04:28:18.794Z,51.71
2023-05-20T04:30:49.124Z,51.58
2023-05-20T04:33:20.945Z,51.48
2023-05-20T04:35:51.624Z,51.57
2023-05-20T04:38:22.192Z,51.57
2023-05-20T04:40:52.853Z,51.33
2023-05-20T04:43:23.430Z,51.20
2023-05-20T04:45:55.648Z,51.19
2023-05-20T04:48:26.414Z,51.06
2023-05-20T04:50:56.978Z,51.37
2023-05-20T04:53:30.136Z,51.05
2023-05-20T04:56:00.705Z,51.13
2023-05-20T04:58:32.070Z,51.32
2023-05-20T05:01:03.733Z,51.08
2023-05-20T05:03:36.589Z,51.26
2023-05-20T05:06:07.956Z,51.32
2023-05-20T05:08:38.342Z,51.43
2023-05-20T05:11:09.503Z,51.33
2023-05-20T05:13:40.102Z,51.15
2023-05-20T05:16:11.804Z,51.21
2023-05-20T05:18:42.233Z,51.35
2023-05-20T05:21:12.587Z,51.19
2023-05-20T05:23:45.046Z,51.22
2023-05-20T05:26:15.388Z,51.20
2023-05-20T05:28:47.483Z,51.19
2023-05-20T05:31:17.971Z,51.21
2023-05-20T05:33:48.585Z,51.20
2023-05-20T05:36:19.852Z,51.05
2023-05-20T05:38:50.588Z,50.81
2023-05-20T05:41:21.217Z,50.58
2023-05-20T05:43:52.610Z,50.61
2023-05-20T05:46:24.871Z,50.85
2023-05-20T05:48:55.128Z,50.81
2023-05-20T05:51:27.915Z,50.86
2023-05-20T05:53:59.055Z,50.69
2023-05-20T05:56:29.522Z,50.30
2023-05-20T05:59:01.250Z,50.14
2023-05-20T06:01:31.667Z,49.85
2023-05-20T06:04:02.577Z,49.93
2023-05-20T06:06:37.361Z,50.21
2023-05-20T06:09:07.918Z,50.45
2023-05-20T06:11:39.515Z,50.32
2023-05-20T06:14:09.786Z,50.04
2023-05-20T06:16:40.210Z,49.93
2023-05-20T06:19:11.752Z,49.70
2023-05-20T06:21:42.582Z,50.05
2023-05-20T06:24:13.076Z,50.14
2023-05-20T06:26:43.680Z,49.83
2023-05-20T06:29:14.213Z,49.87
2023-05-20T06:31:45.881Z,49.68
2023-05-20T06:34:16.877Z,49.88
2023-05-20T06:36:47.298Z,50.08
2023-05-20T06:39:17.954Z,49.97
2023-05-20T06:41:49.301Z,49.97
2023-05-20T06:44:30.237Z,49.93
2023-05-20T06:47:05.394Z,50.01
2023-05-20T06:49:53.973Z,50.10
2023-05-20T06:52:24.487Z,49.87
2023-05-20T06:54:57.524Z,49.75
2023-05-20T06:57:28.139Z,49.69
2023-05-20T06:59:59.105Z,49.66
2023-05-20T07:02:29.807Z,49.60
2023-05-20T07:05:00.024Z,49.59
2023-05-20T07:07:30.601Z,49.48
2023-05-20T07:10:02.529Z,49.71
2023-05-20T07:12:34.398Z,49.64
2023-05-20T07:15:07.296Z,49.25
2023-05-20T07:17:38.589Z,49.15
2023-05-20T07:20:09.610Z,49.08
2023-05-20T07:22:40.384Z,49.27
2023-05-20T07:25:25.287Z,49.42
2023-05-20T07:27:55.966Z,49.22
2023-05-20T07:30:26.378Z,49.36
2023-05-20T07:33:20.061Z,49.55
2023-05-20T07:35:51.473Z,49.47
2023-05-20T07:38:21.742Z,49.14
2023-05-20T07:40:58.770Z,49.30
2023-05-20T07:43:29.309Z,49.21
2023-05-20T07:46:00.689Z,49.18
2023-05-20T07:48:31.490Z,49.07
2023-05-20T07:51:02.250Z,49.33
2023-05-20T07:53:33.192Z,49.03
2023-05-20T07:56:03.500Z,48.98
2023-05-20T07:58:34.996Z,48.79
2023-05-20T08:01:05.728Z,48.93
2023-05-20T08:03:36.440Z,48.83
2023-05-20T08:06:12.140Z,48.81
2023-05-20T08:08:45.718Z,48.80
2023-05-20T08:11:24.152Z,48.95
2023-05-20T08:13:55.984Z,49.00
2023-05-20T08:16:29.282Z,48.89
2023-05-20T08:18:59.933Z,48.84
2023-05-20T08:21:31.345Z,49.25
2023-05-20T08:24:02.081Z,49.15
2023-05-20T08:26:32.675Z,48.96
2023-05-20T08:29:15.384Z,48.90
2023-05-20T08:31:46.189Z,49.17
2023-05-20T08:34:16.527Z,48.87
2023-05-20T08:36:47.778Z,48.88
2023-05-20T08:39:18.342Z,48.81
2023-05-20T08:41:49.785Z,49.08
2023-05-20T08:44:24.155Z,48.95
2023-05-20T08:46:55.356Z,48.94
2023-05-20T08:49:25.963Z,49.00
2023-05-20T08:51:56.334Z,49.09
2023-05-20T08:54:29.062Z,49.12
2023-05-20T08:56:59.673Z,48.90
2023-05-20T08:59:30.599Z,49.16
2023-05-20T09:02:00.786Z,48.96
2023-05-20T09:04:31.093Z,49.19
2023-05-20T09:07:02.865Z,49.20
2023-05-20T09:09:33.714Z,48.94
2023-05-20T09:12:08.530Z,49.18
2023-05-20T09:14:38.937Z,49.04
2023-05-20T09:17:12.432Z,48.65
2023-05-20T09:19:43.096Z,48.69
2023-05-20T09:22:13.498Z,48.70
2023-05-20T09:24:43.984Z,48.81
2023-05-20T09:27:15.710Z,48.30
2023-05-20T09:29:46.236Z,48.26
2023-05-20T09:32:17.234Z,48.25
2023-05-20T09:34:50.049Z,47.95
2023-05-20T09:37:25.131Z,47.83
2023-05-20T09:40:00.567Z,48.00
2023-05-20T09:42:53.192Z,48.02
2023-05-20T09:45:25.098Z,48.10
2023-05-20T09:47:56.331Z,48.10
2023-05-20T09:50:28.957Z,48.10
2023-05-20T09:53:01.357Z,48.37
2023-05-20T09:55:33.452Z,48.33
2023-05-20T09:58:05.836Z,48.40
2023-05-20T10:00:36.926Z,48.54
2023-05-20T10:03:07.521Z,48.55
2023-05-20T10:06:04.059Z,48.43
2023-05-20T10:08:51.053Z,48.52
2023-05-20T10:11:27.545Z,48.40
2023-05-20T10:14:31.727Z,48.65
2023-05-20T10:17:43.063Z,48.69
2023-05-20T10:20:17.011Z,48.79
2023-05-20T10:22:57.591Z,48.62
2023-05-20T10:25:30.775Z,48.67
2023-05-20T10:28:34.058Z,48.64
2023-05-20T10:31:05.069Z,48.84
2023-05-20T10:33:44.061Z,48.77
2023-05-20T10:36:36.227Z,48.88
2023-05-20T10:39:07.180Z,48.94
2023-05-20T10:41:39.796Z,48.89
2023-05-20T10:44:10.386Z,49.04
2023-05-20T10:46:59.912Z,48.83
2023-05-20T10:49:37.710Z,49.02
2023-05-20T10:52:12.666Z,48.73
2023-05-20T10:54:52.649Z,48.99
2023-05-20T10:57:23.656Z,48.94
2023-05-20T10:59:54.040Z,48.91
2023-05-20T11:02:29.464Z,48.84
2023-05-20T11:05:03.332Z,49.04
2023-05-20T11:07:35.150Z,48.95
2023-05-20T11:10:11.092Z,48.73
2023-05-20T11:12:42.144Z,48.83
2023-05-20T11:15:15.710Z,49.20
2023-05-20T11:18:00.451Z,49.09
2023-05-20T11:20:31.224Z,49.06
2023-05-20T11:23:01.569Z,49.06
2023-05-20T11:25:32.280Z,49.12
2023-05-20T11:28:02.644Z,49.00
2023-05-20T11:30:33.882Z,49.24
2023-05-20T11:33:06.923Z,49.10
2023-05-20T11:35:37.397Z,49.26
2023-05-20T11:38:12.614Z,49.08
2023-05-20T11:40:51.117Z,49.19
2023-05-20T11:43:23.386Z,49.20
2023-05-20T11:46:00.228Z,49.29
2023-05-20T11:48:31.429Z,48.89
2023-05-20T11:51:02.368Z,48.80
2023-05-20T11:53:32.583Z,49.00
2023-05-20T11:56:04.619Z,49.05
2023-05-20T11:58:35.299Z,48.97
2023-05-20T12:01:21.025Z,48.98
2023-05-20T12:03:52.836Z,49.00
2023-05-20T12:06:26.094Z,48.93
2023-05-20T12:08:56.403Z,49.28
2023-05-20T12:11:26.616Z,49.21
2023-05-20T12:13:56.997Z,49.38
2023-05-20T12:16:27.376Z,49.36
2023-05-20T12:18:57.862Z,49.54
2023-05-20T12:21:28.196Z,49.54
2023-05-20T12:24:01.479Z,49.31
2023-05-20T12:26:32.631Z,49.46
2023-05-20T12:29:02.595Z,49.63
2023-05-20T12:31:34.936Z,49.78
2023-05-20T12:34:06.073Z,50.53
2023-05-20T12:36:36.509Z,51.09
2023-05-20T12:39:06.877Z,51.91
2023-05-20T12:41:37.163Z,52.72
2023-05-20T12:44:07.511Z,53.49
2023-05-20T12:46:39.372Z,53.91
2023-05-20T12:49:09.995Z,54.60
2023-05-20T12:51:40.280Z,54.86
2023-05-20T12:54:10.742Z,55.35
2023-05-20T12:56:41.849Z,55.76
2023-05-20T12:59:12.358Z,55.87
2023-05-20T13:01:43.378Z,56.16
2023-05-20T13:04:14.017Z,56.34
2023-05-20T13:06:45.859Z,56.13
2023-05-20T13:09:16.327Z,56.09
2023-05-20T13:11:47.488Z,56.41
2023-05-20T13:14:19.377Z,56.50
2023-05-20T13:16:50.671Z,56.69
2023-05-20T13:19:21.075Z,56.71
2023-05-20T13:21:56.760Z,56.66
2023-05-20T13:24:27.352Z,56.80
2023-05-20T13:26:58.396Z,56.58
2023-05-20T13:29:29.079Z,56.88
2023-05-20T13:32:01.602Z,56.84
2023-05-20T13:34:34.518Z,56.86
2023-05-20T13:37:04.741Z,57.41
2023-05-20T13:39:35.220Z,57.00
2023-05-20T13:42:06.698Z,57.12
2023-05-20T13:44:37.125Z,57.47
2023-05-20T13:47:07.724Z,57.41
2023-05-20T13:49:38.261Z,57.21
2023-05-20T13:52:09.848Z,57.30
2023-05-20T13:54:40.371Z,57.52
2023-05-20T13:57:11.061Z,57.86
2023-05-20T13:59:42.350Z,57.91
2023-05-20T14:02:12.526Z,57.93
2023-05-20T14:04:47.471Z,57.91
2023-05-20T14:07:17.887Z,58.02
2023-05-20T14:09:48.292Z,58.07
2023-05-20T14:12:18.756Z,58.46
2023-05-20T14:14:49.301Z,58.45
2023-05-20T14:17:19.967Z,58.57
2023-05-20T14:19:50.962Z,58.30
2023-05-20T14:22:22.409Z,57.96
2023-05-20T14:24:52.843Z,58.32
2023-05-20T14:27:23.442Z,58.33
2023-05-20T14:29:53.831Z,57.99
2023-05-20T14:32:24.446Z,58.10
2023-05-20T14:34:56.321Z,58.10
2023-05-20T14:37:26.849Z,58.25
2023-05-20T14:39:57.860Z,58.26
2023-05-20T14:42:28.015Z,58.34
2023-05-20T14:44:58.182Z,58.34
2023-05-20T14:47:29.275Z,58.41
2023-05-20T14:49:59.742Z,58.67
2023-05-20T14:52:30.215Z,58.44
2023-05-20T14:55:00.553Z,58.82
2023-05-20T14:57:31.022Z,58.92
2023-05-20T15:00:01.370Z,59.20
2023-05-20T15:02:32.507Z,59.12
2023-05-20T15:05:03.616Z,59.36
2023-05-20T15:07:34.144Z,59.51
2023-05-20T16:02:20.178Z,62.93
2023-05-20T16:04:50.857Z,63.06
2023-05-20T16:07:21.320Z,63.00
2023-05-20T16:09:51.736Z,62.89
2023-05-20T16:12:22.129Z,62.60
2023-05-20T16:14:53.013Z,62.64
2023-05-20T16:17:24.078Z,62.90
2023-05-20T16:19:54.077Z,62.45
2023-05-20T16:22:24.403Z,62.50
2023-05-20T16:24:54.731Z,62.47
2023-05-20T16:27:25.034Z,62.50
2023-05-20T16:29:55.441Z,62.11
2023-05-20T16:32:25.851Z,62.35
2023-05-20T16:34:57.181Z,62.29
2023-05-20T16:37:27.492Z,61.95
2023-05-20T16:39:57.788Z,61.84
2023-05-20T16:42:28.322Z,61.86
2023-05-20T16:44:59.011Z,61.54
2023-05-20T16:47:29.464Z,61.71
2023-05-20T16:50:00.007Z,61.83
2023-05-20T16:52:30.321Z,61.71
2023-05-20T16:55:04.716Z,61.75
2023-05-20T16:57:35.199Z,62.00
2023-05-20T17:00:13.775Z,61.87
2023-05-20T17:02:44.072Z,62.11
2023-05-20T17:05:16.730Z,62.19
2023-05-20T17:07:47.468Z,62.17
2023-05-20T17:10:18.190Z,62.13
2023-05-20T17:12:48.578Z,62.33
2023-05-20T17:15:19.312Z,62.13
2023-05-20T17:17:49.589Z,62.12
2023-05-20T17:20:20.267Z,62.19
2023-05-20T17:22:50.707Z,62.08
2023-05-20T17:25:21.192Z,62.41
2023-05-20T17:27:51.575Z,62.08
2023-05-20T17:30:22.126Z,62.33
2023-05-20T17:32:54.085Z,62.30
2023-05-20T17:35:28.005Z,62.42
2023-05-20T17:37:58.900Z,62.17
2023-05-20T17:40:29.366Z,62.17
2023-05-20T17:42:59.728Z,62.15
2023-05-20T17:45:29.953Z,62.11
2023-05-20T17:48:00.504Z,62.16
2023-05-20T17:50:30.848Z,62.07
2023-05-20T17:53:01.166Z,62.17
2023-05-20T17:55:31.582Z,62.15
2023-05-20T17:58:04.239Z,62.09
2023-05-20T18:00:36.752Z,62.29
2023-05-20T18:03:08.414Z,62.40
2023-05-20T18:05:39.006Z,62.16
2023-05-20T18:08:09.331Z,62.26
2023-05-20T18:10:39.967Z,62.33
2023-05-20T18:13:10.608Z,62.58
2023-05-20T18:15:41.159Z,62.47
2023-05-20T18:18:11.914Z,62.24
2023-05-20T18:20:42.902Z,62.61
2023-05-20T18:23:13.395Z,62.36
2023-05-20T18:25:43.981Z,62.22
2023-05-20T18:28:15.516Z,62.29
2023-05-20T18:30:46.044Z,61.66
2023-05-20T18:33:18.329Z,61.57
2023-05-20T18:35:49.026Z,61.36
2023-05-20T18:38:20.950Z,61.02
2023-05-20T18:40:51.716Z,60.61
2023-05-20T18:43:22.041Z,60.89
2023-05-20T18:45:54.070Z,60.95
2023-05-20T18:48:27.280Z,60.80
2023-05-20T18:50:59.240Z,60.64
2023-05-20T18:53:29.528Z,60.56
2023-05-20T18:56:03.687Z,60.42
2023-05-20T18:58:34.240Z,60.39
2023-05-20T19:01:04.804Z,60.15
2023-05-20T19:03:35.281Z,60.08
2023-05-20T19:06:06.331Z,59.83
2023-05-20T19:08:37.036Z,59.53
2023-05-20T19:11:08.025Z,59.24
2023-05-20T19:13:38.547Z,59.58
2023-05-20T19:16:09.260Z,58.93
2023-05-20T19:18:39.581Z,59.13
2023-05-20T19:21:10.184Z,58.68
2023-05-20T19:23:40.493Z,58.40
2023-05-20T19:26:11.454Z,58.34
2023-05-20T19:28:41.755Z,57.74
2023-05-20T19:31:12.042Z,57.96
2023-05-20T19:33:42.768Z,57.71
2023-05-20T19:36:13.127Z,57.59
2023-05-20T19:38:45.722Z,57.50
2023-05-20T19:41:16.738Z,57.35
2023-05-20T19:43:46.862Z,57.36
2023-05-20T19:46:17.190Z,56.98
2023-05-20T19:48:47.710Z,57.02
2023-05-20T19:51:18.153Z,56.99
2023-05-20T19:53:48.409Z,57.07
2023-05-20T19:56:27.648Z,57.17
2023-05-20T19:58:59.481Z,57.06
2023-05-20T20:01:31.498Z,56.87
2023-05-20T20:04:02.060Z,57.13
2023-05-20T20:06:33.374Z,56.86
2023-05-20T20:09:03.922Z,56.76
2023-05-20T20:11:34.208Z,56.77
2023-05-20T20:14:04.598Z,56.56
2023-05-20T20:16:35.065Z,56.60
2023-05-20T20:19:05.481Z,56.41
2023-05-20T20:21:35.824Z,56.33
2023-05-20T20:24:06.263Z,56.44
2023-05-20T20:26:37.005Z,56.30
2023-05-20T20:29:09.091Z,56.29
2023-05-20T20:31:40.141Z,56.14
2023-05-20T20:34:10.506Z,56.21
2023-05-20T20:36:42.040Z,56.16
2023-05-20T20:39:17.713Z,56.33
2023-05-20T20:41:49.816Z,56.10
2023-05-20T20:44:28.116Z,56.14
2023-05-20T20:47:00.710Z,56.01
2023-05-20T20:49:31.535Z,56.12
2023-05-20T20:52:01.858Z,56.06
2023-05-20T20:54:32.102Z,56.00
2023-05-20T20:57:05.049Z,56.13
2023-05-20T20:59:35.570Z,55.71
2023-05-20T21:02:06.852Z,55.91
2023-05-20T21:04:38.169Z,55.70
2023-05-20T21:07:08.667Z,55.08
2023-05-20T21:09:39.112Z,55.60
2023-05-20T21:12:10.004Z,55.08
2023-05-20T21:14:40.417Z,55.00
2023-05-20T21:17:12.304Z,54.92
2023-05-20T21:19:42.710Z,54.65
2023-05-20T21:22:13.182Z,54.49
2023-05-20T21:24:43.471Z,54.49
2023-05-20T21:27:13.945Z,54.55
2023-05-20T21:29:44.211Z,54.54
2023-05-20T21:32:14.689Z,54.58
2023-05-20T21:34:44.856Z,54.49
2023-05-20T21:37:15.177Z,54.67
2023-05-20T21:39:45.469Z,54.99
2023-05-20T21:42:15.812Z,54.74
2023-05-20T21:44:46.501Z,54.97
2023-05-20T21:47:16.867Z,54.71
2023-05-20T21:49:47.320Z,54.76
2023-05-20T21:52:17.965Z,55.02
2023-05-20T21:54:48.220Z,54.57
2023-05-20T21:57:18.478Z,54.68
2023-05-20T21:59:49.195Z,54.69
2023-05-20T22:02:20.225Z,54.89
2023-05-20T22:04:51.620Z,54.63
2023-05-20T22:07:22.001Z,54.62
2023-05-20T22:09:52.315Z,54.61
2023-05-20T22:12:24.009Z,54.58
2023-05-20T22:14:54.405Z,54.54
2023-05-20T22:17:26.318Z,54.61
2023-05-20T22:19:56.788Z,54.79
2023-05-20T22:22:27.402Z,54.96
2023-05-20T22:24:58.029Z,54.60
2023-05-20T22:27:28.373Z,54.79
2023-05-20T22:29:58.597Z,54.53
2023-05-20T22:32:29.019Z,54.44
2023-05-20T22:35:00.942Z,54.71
2023-05-20T22:37:32.368Z,54.51
2023-05-20T22:40:02.697Z,54.54
2023-05-20T22:42:32.861Z,54.36
2023-05-20T22:45:03.284Z,54.61
2023-05-20T22:47:33.995Z,54.42
2023-05-20T22:50:05.068Z,54.40
2023-05-20T22:52:35.443Z,54.82
2023-05-20T22:55:06.450Z,54.65
2023-05-20T22:57:37.369Z,54.63
2023-05-20T23:00:10.418Z,54.86
2023-05-20T23:02:45.403Z,54.92
2023-05-20T23:05:16.395Z,54.79
2023-05-20T23:07:47.402Z,54.63
2023-05-20T23:10:18.282Z,54.49
2023-05-20T23:12:48.618Z,54.78
2023-05-20T23:15:19.835Z,54.67
2023-05-20T23:17:52.146Z,54.72
2023-05-20T23:20:23.907Z,54.78
2023-05-20T23:22:54.169Z,54.81
2023-05-20T23:25:25.802Z,54.72
2023-05-20T23:27:56.065Z,54.88
2023-05-20T23:30:26.732Z,54.68
2023-05-20T23:32:57.920Z,54.83
2023-05-20T23:35:28.438Z,54.48
2023-05-20T23:37:58.763Z,54.66
2023-05-20T23:40:29.105Z,54.84
2023-05-20T23:42:59.426Z,54.93
2023-05-20T23:45:31.048Z,55.07
2023-05-20T23:48:03.720Z,55.04
2023-05-20T23:50:35.236Z,55.17
2023-05-20T23:53:05.639Z,55.26
2023-05-20T23:55:36.145Z,55.37
2023-05-20T23:58:06.823Z,55.31
